Time;durP1;ratioP1;P1;durP2;ratioP2;P2;SDS_P1;SDS_P2;PMS_P1;PMS_P2;Temp;Humidity;BMP_temperature;BMP_pressure;BME280_temperature;BME280_humidity;BME280_pressure;Samples;Min_cycle;Max_cycle;Signal;HPM_P1;HPM_P2
2023/12/27 00:01:21;;;;;;;8.40;4.10;;;;;;;5.73;100.00;98926.34;109522;1251;65041;-77
2023/12/27 00:03:50;;;;;;;8.70;4.50;;;;;;;5.72;100.00;98931.48;109529;1251;61222;-77
2023/12/27 00:06:17;;;;;;;8.00;4.50;;;;;;;5.73;100.00;98933.02;109537;1251;65107;-78
2023/12/27 00:08:46;;;;;;;6.70;4.60;;;;;;;5.73;100.00;98933.38;109540;1251;58360;-78
2023/12/27 00:11:17;;;;;;;6.20;3.80;;;;;;;5.74;100.00;98939.53;109500;1251;58121;-77
2023/12/27 00:13:44;;;;;;;5.80;3.60;;;;;;;5.75;100.00;98941.95;109548;1251;66162;-77
2023/12/27 00:16:11;;;;;;;4.30;3.40;;;;;;;5.77;100.00;98945.91;109559;1251;59938;-78
2023/12/27 00:18:37;;;;;;;3.60;3.20;;;;;;;5.82;100.00;98946.75;109523;1251;64012;-78
2023/12/27 00:21:04;;;;;;;5.40;3.60;;;;;;;5.84;100.00;98957.88;109371;1251;58180;-77
2023/12/27 00:23:30;;;;;;;3.40;2.90;;;;;;;5.87;100.00;98959.85;109563;1251;58198;-77
2023/12/27 00:25:57;;;;;;;5.40;3.90;;;;;;;5.89;100.00;98963.11;109591;1251;66322;-77
2023/12/27 00:28:24;;;;;;;6.20;4.30;;;;;;;5.92;100.00;98961.59;109528;1251;61378;-76
2023/12/27 00:30:51;;;;;;;7.80;3.80;;;;;;;5.94;100.00;98967.66;109519;1251;64110;-77
2023/12/27 00:33:18;;;;;;;5.20;3.40;;;;;;;5.96;100.00;98976.04;109564;1251;58211;-77
2023/12/27 00:35:47;;;;;;;4.70;3.10;;;;;;;5.99;100.00;98982.09;109562;1251;58119;-76
2023/12/27 00:38:13;;;;;;;3.50;2.70;;;;;;;6.02;100.00;98987.42;109514;1251;66335;-78
2023/12/27 00:40:41;;;;;;;3.00;2.50;;;;;;;6.03;100.00;98998.46;109567;1251;61583;-76
2023/12/27 00:43:07;;;;;;;4.60;3.00;;;;;;;6.05;100.00;99006.99;109535;1251;65218;-77
2023/12/27 00:45:34;;;;;;;4.90;3.40;;;;;;;6.09;100.00;99014.08;109517;1251;59106;-76
2023/12/27 00:48:01;;;;;;;4.60;2.90;;;;;;;6.10;100.00;99015.40;109551;1251;58505;-77
2023/12/27 00:50:27;;;;;;;4.70;2.80;;;;;;;6.12;100.00;99018.11;109510;1251;65141;-77
2023/12/27 00:52:54;;;;;;;4.90;3.00;;;;;;;6.15;100.00;99025.20;109446;1251;58877;-78
2023/12/27 00:55:20;;;;;;;4.60;3.60;;;;;;;6.21;100.00;99026.01;109501;1251;65058;-77
2023/12/27 00:57:47;;;;;;;6.70;3.00;;;;;;;6.24;100.00;99034.33;109235;1251;58301;-77
2023/12/27 01:00:14;;;;;;;4.40;3.20;;;;;;;6.26;100.00;99044.08;109559;1251;58223;-77
2023/12/27 01:02:41;;;;;;;3.20;2.90;;;;;;;6.27;100.00;99050.40;109382;1251;66211;-76
2023/12/27 01:05:08;;;;;;;4.70;2.90;;;;;;;6.26;100.00;99063.67;109544;1251;60188;-76
2023/12/27 01:07:35;;;;;;;4.40;2.90;;;;;;;6.27;100.00;99068.40;109387;1251;65128;-76
2023/12/27 01:10:02;;;;;;;2.60;2.40;;;;;;;6.26;100.00;99061.71;109545;1251;58377;-76
2023/12/27 01:12:29;;;;;;;3.60;2.90;;;;;;;6.30;100.00;99069.14;109557;1251;58164;-77
2023/12/27 01:14:55;;;;;;;5.70;2.70;;;;;;;6.33;100.00;99068.84;109544;1251;65111;-77
2023/12/27 01:17:22;;;;;;;2.80;2.30;;;;;;;6.31;100.00;99067.12;109568;1251;60112;-73
2023/12/27 01:19:49;;;;;;;4.60;3.00;;;;;;;6.29;100.00;99073.58;109545;1251;64862;-76
2023/12/27 01:22:15;;;;;;;3.60;2.80;;;;;;;6.26;100.00;99071.95;108760;1251;1002488;-77
2023/12/27 01:24:42;;;;;;;3.90;2.30;;;;;;;6.23;100.00;99066.98;109548;1251;58184;-77
2023/12/27 01:27:08;;;;;;;5.50;3.10;;;;;;;6.22;100.00;99071.99;109479;1251;66142;-76
2023/12/27 01:29:35;;;;;;;4.70;2.50;;;;;;;6.23;100.00;99079.37;109396;1251;58836;-76
2023/12/27 01:32:01;;;;;;;4.80;2.90;;;;;;;6.22;100.00;99082.03;109455;1251;64176;-76
2023/12/27 01:34:28;;;;;;;6.40;2.80;;;;;;;6.21;100.00;99078.56;109499;1251;58277;-78
2023/12/27 01:36:54;;;;;;;3.60;2.40;;;;;;;6.21;100.00;99078.56;109562;1251;58423;-77
2023/12/27 01:39:22;;;;;;;3.70;2.40;;;;;;;6.20;100.00;99073.86;109603;1251;66443;-78
2023/12/27 01:41:49;;;;;;;4.80;2.60;;;;;;;6.18;100.00;99074.86;109567;1250;61425;-77
2023/12/27 01:44:15;;;;;;;3.60;2.50;;;;;;;6.16;100.00;99075.08;109545;1251;65116;-77
2023/12/27 01:46:42;;;;;;;5.70;3.30;;;;;;;6.16;100.00;99082.68;109396;1250;58190;-76
2023/12/27 01:49:09;;;;;;;4.30;3.40;;;;;;;6.14;100.00;99086.84;109566;1253;58316;-76
2023/12/27 01:51:36;;;;;;;5.10;2.90;;;;;;;6.11;100.00;99086.44;109554;1251;65227;-77
2023/12/27 01:54:03;;;;;;;5.30;2.90;;;;;;;6.09;100.00;99086.73;109547;1251;60036;-76
2023/12/27 01:56:29;;;;;;;3.90;3.00;;;;;;;6.08;100.00;99084.49;109539;1251;64119;-76
2023/12/27 01:58:57;;;;;;;5.00;2.70;;;;;;;6.06;100.00;99086.68;109539;1251;58165;-75
2023/12/27 02:01:24;;;;;;;3.20;2.40;;;;;;;6.06;100.00;99095.68;109543;1251;58107;-76
2023/12/27 02:03:50;;;;;;;2.80;2.20;;;;;;;6.06;100.00;99100.44;109521;1251;65954;-76
2023/12/27 02:06:17;;;;;;;3.20;2.10;;;;;;;6.05;100.00;99103.27;109587;1250;60029;-75
2023/12/27 02:08:45;;;;;;;3.80;2.30;;;;;;;6.06;100.00;99105.91;109558;1251;65082;-76
2023/12/27 02:11:12;;;;;;;3.50;2.00;;;;;;;6.07;100.00;99109.73;109529;1251;58234;-77
2023/12/27 02:13:41;;;;;;;3.40;2.70;;;;;;;6.07;100.00;99112.90;109312;1254;58728;-76
2023/12/27 02:16:07;;;;;;;4.90;2.20;;;;;;;6.10;100.00;99121.05;109325;1254;65173;-77
2023/12/27 02:18:34;;;;;;;3.60;2.10;;;;;;;6.11;100.00;99127.16;109342;1254;61522;-75
2023/12/27 02:21:01;;;;;;;3.40;2.00;;;;;;;6.11;100.00;99126.48;109307;1254;65293;-76
2023/12/27 02:23:29;;;;;;;3.40;2.00;;;;;;;6.10;100.00;99123.35;109315;1254;58232;-77
2023/12/27 02:25:56;;;;;;;4.90;2.40;;;;;;;6.08;100.00;99127.69;109320;1254;58454;-77
2023/12/27 02:28:23;;;;;;;3.80;2.30;;;;;;;6.06;100.00;99127.08;109331;1253;64943;-76
2023/12/27 02:30:53;;;;;;;4.20;1.80;;;;;;;6.05;100.00;99133.83;109363;1253;61606;-77
2023/12/27 02:33:20;;;;;;;;;;;;;;;6.05;100.00;99135.23;109322;1253;64942;-76
2023/12/27 02:35:46;;;;;;;4.60;1.80;;;;;;;6.04;100.00;99133.71;109298;1253;58485;-77
2023/12/27 02:38:13;;;;;;;2.30;2.10;;;;;;;6.04;100.00;99135.10;109326;1253;58271;-77
2023/12/27 02:40:39;;;;;;;2.70;2.10;;;;;;;6.05;100.00;99136.83;109303;1254;65214;-77
2023/12/27 02:43:09;;;;;;;3.40;1.70;;;;;;;6.05;100.00;99142.43;109171;1253;59308;-77
2023/12/27 02:45:35;;;;;;;2.90;1.80;;;;;;;6.05;100.00;99149.49;109483;1251;64040;-76
2023/12/27 02:48:02;;;;;;;2.70;2.00;;;;;;;6.05;100.00;99150.40;109455;1251;58287;-77
2023/12/27 02:50:29;;;;;;;4.50;1.70;;;;;;;6.05;100.00;99156.20;109546;1251;58137;-77
2023/12/27 02:52:55;;;;;;;2.50;1.70;;;;;;;6.05;100.00;99157.46;109534;1251;66209;-79
2023/12/27 02:55:22;;;;;;;2.90;1.70;;;;;;;6.05;100.00;99163.27;109584;1251;60031;-78
2023/12/27 02:57:48;;;;;;;2.10;1.50;;;;;;;6.05;100.00;99162.38;109534;1251;64193;-78
2023/12/27 03:00:35;;;;;;;3.30;1.50;;;;;;;6.06;100.00;99162.85;109514;1251;58502;-76
2023/12/27 03:03:02;;;;;;;2.10;1.50;;;;;;;6.06;100.00;99166.77;109558;1251;58222;-76
2023/12/27 03:05:29;;;;;;;3.70;1.30;;;;;;;6.06;100.00;99170.65;109591;1251;64854;-77
2023/12/27 03:07:55;;;;;;;1.80;1.30;;;;;;;6.06;100.00;99183.70;109534;1251;69052;-77
2023/12/27 03:10:22;;;;;;;1.80;1.50;;;;;;;6.08;100.00;99192.77;109583;1251;65061;-77
2023/12/27 03:12:49;;;;;;;3.00;1.50;;;;;;;6.07;100.00;99203.06;109533;1253;58232;-76
2023/12/27 03:15:15;;;;;;;3.60;1.70;;;;;;;6.05;100.00;99214.43;109551;1251;58107;-76
2023/12/27 03:17:42;;;;;;;2.90;1.50;;;;;;;6.01;100.00;99206.67;109556;1251;66330;-77
2023/12/27 03:20:09;;;;;;;4.90;1.70;;;;;;;5.93;100.00;99202.21;109317;1251;58734;-76
2023/12/27 03:22:36;;;;;;;4.50;1.90;;;;;;;5.87;100.00;99207.06;109570;1251;63958;-77
2023/12/27 03:25:03;;;;;;;3.60;2.00;;;;;;;5.83;100.00;99208.14;109541;1251;58258;-77
2023/12/27 03:27:30;;;;;;;3.60;1.90;;;;;;;5.80;100.00;99210.92;109540;1251;58193;-75
2023/12/27 03:29:56;;;;;;;4.20;2.00;;;;;;;5.78;100.00;99213.65;109532;1251;66200;-76
2023/12/27 03:32:24;;;;;;;3.10;2.00;;;;;;;5.76;100.00;99216.73;109591;1251;59689;-77
2023/12/27 03:34:50;;;;;;;2.40;1.80;;;;;;;5.75;100.00;99224.70;109512;1251;65395;-77
2023/12/27 03:37:34;;;;;;;2.80;1.80;;;;;;;5.75;100.00;99229.14;109328;1251;58351;-78
2023/12/27 03:40:01;;;;;;;3.30;2.00;;;;;;;5.74;100.00;99233.04;109574;1251;58330;-78
2023/12/27 03:42:28;;;;;;;2.80;1.80;;;;;;;5.71;100.00;99238.63;109572;1251;66205;-78
2023/12/27 03:44:54;;;;;;;3.90;1.90;;;;;;;5.67;100.00;99246.20;109569;1251;60957;-78
2023/12/27 03:47:21;;;;;;;2.50;1.60;;;;;;;5.61;100.00;99251.05;109557;1251;64111;-79
2023/12/27 03:49:47;;;;;;;3.50;1.40;;;;;;;5.56;100.00;99261.29;109383;1251;58158;-79
2023/12/27 03:52:14;;;;;;;3.90;1.60;;;;;;;5.51;100.00;99257.81;109539;1251;59181;-76
2023/12/27 03:54:41;;;;;;;6.00;1.70;;;;;;;5.45;100.00;99259.27;109531;1251;66140;-76
2023/12/27 03:57:08;;;;;;;3.70;1.40;;;;;;;5.37;100.00;99255.25;109405;1251;60107;-77
2023/12/27 03:59:38;;;;;;;4.20;1.20;;;;;;;5.28;100.00;99260.67;109504;1251;65027;-78
2023/12/27 04:02:05;;;;;;;3.20;1.40;;;;;;;5.20;100.00;99263.48;109212;1251;58348;-76
2023/12/27 04:04:33;;;;;;;3.20;1.30;;;;;;;5.15;100.00;99264.39;109576;1251;58623;-76
2023/12/27 04:07:00;;;;;;;2.70;1.20;;;;;;;5.11;100.00;99268.79;109368;1251;65914;-79
2023/12/27 04:09:26;;;;;;;3.40;1.50;;;;;;;5.09;100.00;99281.20;109540;1255;61030;-78
2023/12/27 04:11:53;;;;;;;3.00;1.50;;;;;;;5.08;100.00;99281.95;109515;1251;65222;-77
2023/12/27 04:14:19;;;;;;;5.30;2.10;;;;;;;5.06;100.00;99287.48;109529;1251;58166;-77
2023/12/27 04:16:46;;;;;;;3.70;1.40;;;;;;;5.03;100.00;99287.60;109387;1251;58270;-76
2023/12/27 04:19:13;;;;;;;2.50;1.50;;;;;;;5.00;100.00;99287.54;109554;1251;64906;-76
2023/12/27 04:21:41;;;;;;;3.50;1.30;;;;;;;4.95;100.00;99288.45;109532;1251;61064;-76
2023/12/27 04:24:09;;;;;;;5.70;1.50;;;;;;;4.90;100.00;99297.63;109525;1251;63972;-76
2023/12/27 04:26:38;;;;;;;3.90;1.70;;;;;;;4.86;100.00;99297.95;109485;1251;58136;-77
2023/12/27 04:29:07;;;;;;;1.90;1.50;;;;;;;4.83;100.00;99296.65;109563;1251;58570;-76
2023/12/27 04:31:35;;;;;;;3.60;1.30;;;;;;;4.81;100.00;99303.08;109574;1251;65900;-76
2023/12/27 04:34:02;;;;;;;2.70;1.50;;;;;;;4.79;100.00;99305.95;109551;1251;59941;-76
2023/12/27 04:36:29;;;;;;;3.80;1.50;;;;;;;4.77;100.00;99306.04;109526;1251;65057;-77
2023/12/27 04:38:55;;;;;;;2.20;1.70;;;;;;;4.73;100.00;99304.79;109526;1251;58412;-77
2023/12/27 04:41:22;;;;;;;3.70;1.80;;;;;;;4.69;100.00;99308.30;109562;1251;58092;-76
2023/12/27 04:43:48;;;;;;;3.40;1.60;;;;;;;4.62;100.00;99306.80;109388;1251;65101;-75
2023/12/27 04:46:15;;;;;;;3.70;1.90;;;;;;;4.56;100.00;99305.61;109317;1252;60340;-77
2023/12/27 04:48:41;;;;;;;5.40;2.60;;;;;;;4.51;100.00;99307.89;109474;1252;64072;-76
2023/12/27 04:51:08;;;;;;;3.10;2.50;;;;;;;4.49;100.00;99315.91;109497;1253;58186;-75
2023/12/27 04:53:35;;;;;;;3.80;2.80;;;;;;;4.48;100.00;99318.74;109464;1254;58424;-76
2023/12/27 04:56:01;;;;;;;4.10;2.40;;;;;;;4.47;100.00;99319.48;109476;1252;66229;-76
2023/12/27 04:58:28;;;;;;;3.90;2.90;;;;;;;4.46;100.00;99324.09;109497;1253;60144;-76
2023/12/27 05:00:54;;;;;;;4.70;2.70;;;;;;;4.45;100.00;99324.83;109469;1252;64109;-76
2023/12/27 05:03:21;;;;;;;6.80;3.30;;;;;;;4.44;100.00;99325.59;109255;1252;58196;-78
2023/12/27 05:05:47;;;;;;;5.40;2.80;;;;;;;4.43;100.00;99330.37;109470;1253;58263;-76
2023/12/27 05:08:14;;;;;;;4.70;2.80;;;;;;;4.43;100.00;99334.43;109531;1253;65104;-76
2023/12/27 05:10:41;;;;;;;6.40;2.70;;;;;;;4.42;100.00;99338.30;107944;1252;1002439;-76
2023/12/27 05:13:07;;;;;;;4.00;2.30;;;;;;;4.40;100.00;99340.69;109458;1252;64186;-76
2023/12/27 05:15:34;;;;;;;3.90;1.80;;;;;;;4.36;100.00;99348.20;109361;1253;60438;-77
2023/12/27 05:18:00;;;;;;;5.80;1.70;;;;;;;4.33;100.00;99352.02;109467;1253;58286;-79
2023/12/27 05:20:27;;;;;;;2.30;1.30;;;;;;;4.33;100.00;99356.91;109477;1253;65251;-75
2023/12/27 05:22:53;;;;;;;2.80;1.50;;;;;;;4.34;100.00;99359.89;109381;1253;113205;-77
2023/12/27 05:25:20;;;;;;;1.70;1.00;;;;;;;4.30;100.00;99364.41;109507;1252;65099;-76
2023/12/27 05:27:47;;;;;;;4.60;1.50;;;;;;;4.27;100.00;99373.88;109484;1252;58241;-77
2023/12/27 05:30:13;;;;;;;1.30;1.10;;;;;;;4.21;100.00;99379.69;107188;1253;1003211;-79
2023/12/27 05:32:40;;;;;;;3.50;1.70;;;;;;;4.17;100.00;99383.35;109180;1252;66572;-77
2023/12/27 05:35:09;;;;;;;3.00;1.00;;;;;;;4.13;100.00;99382.78;109511;1252;61166;-76
2023/12/27 05:37:35;;;;;;;2.70;1.30;;;;;;;4.09;100.00;99389.80;109242;1254;65422;-76
2023/12/27 05:40:03;;;;;;;3.90;1.30;;;;;;;4.06;100.00;99397.80;109484;1252;58237;-77
2023/12/27 05:42:30;;;;;;;3.50;1.10;;;;;;;4.05;100.00;99410.85;109495;1256;58156;-77
2023/12/27 05:44:56;;;;;;;2.40;1.10;;;;;;;4.01;100.00;99419.05;109538;1253;66142;-77
2023/12/27 05:47:23;;;;;;;3.80;1.40;;;;;;;3.98;100.00;99418.13;109455;1252;60047;-77
2023/12/27 05:49:49;;;;;;;3.30;1.20;;;;;;;3.92;100.00;99426.58;109450;1254;64115;-77
2023/12/27 05:52:16;;;;;;;4.00;1.40;;;;;;;3.89;100.00;99433.86;109510;1252;58235;-77
2023/12/27 05:54:43;;;;;;;4.00;1.80;;;;;;;3.87;100.00;99439.36;109477;1253;58550;-76
2023/12/27 05:57:09;;;;;;;2.90;1.60;;;;;;;3.83;100.00;99451.48;109474;1251;66270;-76
2023/12/27 05:59:36;;;;;;;1.80;1.50;;;;;;;3.75;100.00;99458.23;109483;1254;61691;-77
2023/12/27 06:02:03;;;;;;;3.10;1.70;;;;;;;3.68;100.00;99461.60;109486;1253;63914;-76
2023/12/27 06:04:30;;;;;;;3.60;1.80;;;;;;;3.63;100.00;99464.75;109487;1253;58210;-76
2023/12/27 06:06:56;;;;;;;4.80;3.10;;;;;;;3.57;100.00;99463.54;109443;1253;58272;-78
2023/12/27 06:09:24;;;;;;;7.50;3.00;;;;;;;3.52;100.00;99466.16;109471;1252;65406;-77
2023/12/27 06:11:50;;;;;;;3.60;3.00;;;;;;;3.50;100.00;99469.54;109512;1253;61198;-77
2023/12/27 06:14:17;;;;;;;4.90;3.40;;;;;;;3.50;100.00;99465.68;109514;1253;65087;-77
2023/12/27 06:16:43;;;;;;;5.90;3.70;;;;;;;3.48;100.00;99469.08;109440;1254;58251;-77
2023/12/27 06:19:10;;;;;;;5.80;3.30;;;;;;;3.43;100.00;99468.86;109478;1252;58077;-76
2023/12/27 06:21:36;;;;;;;3.90;2.90;;;;;;;3.41;100.00;99473.34;109476;1253;65171;-77
2023/12/27 06:24:03;;;;;;;4.30;3.00;;;;;;;3.38;100.00;99479.73;109485;1252;60100;-78
2023/12/27 06:26:30;;;;;;;4.70;2.70;;;;;;;3.37;100.00;99479.23;109489;1253;64242;-77
2023/12/27 06:28:57;;;;;;;5.60;3.40;;;;;;;3.37;100.00;99483.63;109456;1254;58417;-78
2023/12/27 06:31:23;;;;;;;6.70;3.60;;;;;;;3.36;100.00;99484.19;109246;1253;58244;-77
2023/12/27 06:33:50;;;;;;;7.30;4.00;;;;;;;3.33;100.00;99486.92;109471;1253;66671;-76
2023/12/27 06:36:16;;;;;;;7.00;4.10;;;;;;;3.30;100.00;99483.66;109229;1253;61089;-77
2023/12/27 06:38:46;;;;;;;6.40;3.90;;;;;;;3.28;100.00;99486.02;109451;1253;63677;-77
2023/12/27 06:41:13;;;;;;;3.80;3.00;;;;;;;3.23;100.00;99488.08;109430;1252;58290;-77
2023/12/27 06:43:39;;;;;;;4.60;3.60;;;;;;;3.22;100.00;99492.17;109491;1252;58399;-77
2023/12/27 06:46:10;;;;;;;8.00;3.40;;;;;;;3.24;100.00;99498.78;109437;1253;66219;-77
2023/12/27 06:48:36;;;;;;;5.50;3.60;;;;;;;3.30;100.00;99507.02;109354;1254;61069;-76
2023/12/27 06:51:05;;;;;;;6.10;4.70;;;;;;;3.32;100.00;99515.04;109188;1253;64105;-77
2023/12/27 06:53:33;;;;;;;4.50;4.00;;;;;;;3.31;100.00;99516.83;109412;1253;58157;-77
2023/12/27 06:56:01;;;;;;;6.80;3.90;;;;;;;3.30;100.00;99521.59;109478;1254;58109;-77
2023/12/27 06:58:27;;;;;;;5.00;4.30;;;;;;;3.30;100.00;99523.70;109472;1254;65157;-76
2023/12/27 07:00:54;;;;;;;8.50;5.70;;;;;;;3.29;100.00;99521.98;109476;1253;60162;-76
2023/12/27 07:03:21;;;;;;;8.00;4.60;;;;;;;3.27;100.00;99520.10;109460;1252;65030;-77
2023/12/27 07:05:47;;;;;;;5.40;4.60;;;;;;;3.26;100.00;99523.45;109193;1257;58253;-77
2023/12/27 07:08:14;;;;;;;4.60;3.20;;;;;;;3.26;100.00;99527.49;109236;1253;58200;-77
2023/12/27 07:10:41;;;;;;;3.60;3.00;;;;;;;3.27;100.00;99529.92;109440;1252;65309;-77
2023/12/27 07:13:08;;;;;;;4.30;3.10;;;;;;;3.29;100.00;99532.52;109478;1252;61054;-77
2023/12/27 07:15:35;;;;;;;5.70;3.80;;;;;;;3.29;100.00;99533.74;109239;1252;64576;-77
2023/12/27 07:18:02;;;;;;;4.70;3.30;;;;;;;3.29;100.00;99533.39;109443;1254;58196;-77
2023/12/27 07:20:28;;;;;;;6.10;3.70;;;;;;;3.28;100.00;99539.05;109434;1254;58130;-77
2023/12/27 07:22:56;;;;;;;5.10;3.40;;;;;;;3.28;100.00;99543.77;109462;1252;65238;-76
2023/12/27 07:25:22;;;;;;;6.60;4.40;;;;;;;3.29;100.00;99554.30;109448;1254;61058;-76
2023/12/27 07:27:49;;;;;;;5.70;3.90;;;;;;;3.30;100.00;99556.00;109448;1252;72975;-78
2023/12/27 07:30:16;;;;;;;4.70;4.20;;;;;;;3.34;100.00;99565.75;109421;1253;58327;-77
2023/12/27 07:32:42;;;;;;;5.40;3.90;;;;;;;3.37;100.00;99571.11;109480;1253;58240;-77
2023/12/27 07:35:09;;;;;;;5.30;2.90;;;;;;;3.40;100.00;99576.30;109472;1252;66178;-76
2023/12/27 07:37:36;;;;;;;5.80;2.90;;;;;;;3.43;100.00;99576.89;109445;1254;61402;-77
2023/12/27 07:40:03;;;;;;;7.20;2.90;;;;;;;3.48;100.00;99584.33;109415;1252;65196;-77
2023/12/27 07:42:30;;;;;;;5.80;2.80;;;;;;;3.53;100.00;99584.16;109435;1253;58552;-77
2023/12/27 07:44:56;;;;;;;5.50;3.30;;;;;;;3.58;100.00;99587.20;109474;1252;58429;-77
2023/12/27 07:47:23;;;;;;;3.40;2.30;;;;;;;3.63;100.00;99590.73;109467;1254;66188;-77
2023/12/27 07:49:49;;;;;;;5.40;2.30;;;;;;;3.66;100.00;99590.28;109436;1254;60085;-77
2023/12/27 07:52:16;;;;;;;6.40;2.30;;;;;;;3.70;100.00;99595.63;109437;1254;65051;-77
2023/12/27 07:54:42;;;;;;;4.20;2.30;;;;;;;3.74;100.00;99598.14;109487;1252;58523;-76
2023/12/27 07:57:09;;;;;;;8.30;2.90;;;;;;;3.79;100.00;99602.23;109482;1253;58363;-74
2023/12/27 07:59:36;;;;;;;7.00;3.70;;;;;;;3.82;100.00;99603.70;109453;1254;66316;-78
2023/12/27 08:02:02;;;;;;;8.20;4.70;;;;;;;3.86;100.00;99612.21;109497;1254;60103;-77
2023/12/27 08:04:29;;;;;;;7.30;4.70;;;;;;;3.89;100.00;99620.38;109473;1254;65026;-76
2023/12/27 08:06:56;;;;;;;9.10;4.90;;;;;;;3.93;100.00;99624.48;109402;1254;58136;-77
2023/12/27 08:09:23;;;;;;;8.30;4.40;;;;;;;3.95;100.00;99632.33;109443;1256;58120;-76
2023/12/27 08:11:49;;;;;;;7.30;4.60;;;;;;;3.99;100.00;99633.80;109456;1252;65325;-76
2023/12/27 08:14:16;;;;;;;7.70;3.80;;;;;;;4.02;100.00;99637.73;109488;1254;61029;-76
2023/12/27 08:16:43;;;;;;;9.50;4.30;;;;;;;4.05;100.00;99643.80;109433;1254;64010;-76
2023/12/27 08:19:10;;;;;;;7.00;3.70;;;;;;;4.07;100.00;99648.84;109414;1254;58200;-77
2023/12/27 08:21:36;;;;;;;9.00;3.40;;;;;;;4.10;100.00;99648.76;109460;1254;58352;-77
2023/12/27 08:24:03;;;;;;;8.30;2.80;;;;;;;4.14;100.00;99653.04;109454;1254;65328;-77
2023/12/27 08:26:30;;;;;;;8.00;2.60;;;;;;;4.19;100.00;99660.80;109389;1253;60917;-77
2023/12/27 08:28:56;;;;;;;8.40;2.80;;;;;;;4.23;100.00;99669.64;109466;1254;65128;-77
2023/12/27 08:31:23;;;;;;;7.30;2.20;;;;;;;4.27;100.00;99674.61;109441;1254;58241;-78
2023/12/27 08:33:50;;;;;;;8.90;2.60;;;;;;;4.31;100.00;99675.39;109425;1253;58249;-77
2023/12/27 08:36:16;;;;;;;4.60;2.30;;;;;;;4.35;100.00;99678.23;109469;1252;66575;-76
2023/12/27 08:38:44;;;;;;;6.30;2.40;;;;;;;4.39;100.00;99680.95;109440;1252;60036;-77
2023/12/27 08:41:10;;;;;;;3.90;1.90;;;;;;;4.43;100.00;99681.02;109444;1253;64228;-79
2023/12/27 08:43:37;;;;;;;4.30;1.80;;;;;;;4.46;100.00;99687.23;109414;1253;58464;-78
2023/12/27 08:46:09;;;;;;;5.00;2.60;;;;;;;4.51;100.00;99686.40;109357;1252;58312;-77
2023/12/27 08:48:35;;;;;;;4.60;2.30;;;;;;;4.55;100.00;99686.97;109437;1254;66240;-77
2023/12/27 08:51:02;;;;;;;5.80;2.50;;;;;;;4.58;100.00;99687.38;109450;1253;60899;-77
2023/12/27 08:53:29;;;;;;;6.00;3.20;;;;;;;4.65;100.00;99691.24;109501;1253;65316;-79
2023/12/27 08:55:56;;;;;;;8.00;2.10;;;;;;;4.69;100.00;99690.04;109339;1252;58270;-77
2023/12/27 08:58:23;;;;;;;5.50;2.40;;;;;;;4.73;100.00;99690.27;109462;1252;58216;-80
2023/12/27 09:00:49;;;;;;;5.60;2.70;;;;;;;4.80;100.00;99693.23;109393;1254;66405;-81
2023/12/27 09:03:16;;;;;;;4.90;2.10;;;;;;;4.84;100.00;99689.23;109528;1254;61275;-78
2023/12/27 09:05:42;;;;;;;5.50;2.80;;;;;;;4.88;100.00;99692.78;109435;1253;65305;-77
2023/12/27 09:08:09;;;;;;;4.50;2.20;;;;;;;4.93;100.00;99696.86;109441;1256;58254;-76
2023/12/27 09:10:36;;;;;;;6.50;2.80;;;;;;;4.98;100.00;99697.20;109519;1253;58325;-79
2023/12/27 09:13:03;;;;;;;7.70;2.50;;;;;;;5.02;100.00;99695.64;109484;1254;65301;-77
2023/12/27 09:15:30;;;;;;;5.30;2.50;;;;;;;5.07;100.00;99694.98;109516;1254;60019;-78
2023/12/27 09:17:56;;;;;;;5.90;2.30;;;;;;;5.10;100.00;99696.46;109441;1253;63999;-78
2023/12/27 09:20:23;;;;;;;7.20;2.90;;;;;;;5.15;100.00;99699.13;109440;1253;58227;-78
2023/12/27 09:22:50;;;;;;;6.70;3.00;;;;;;;5.19;100.00;99699.14;109495;1252;58198;-78
2023/12/27 09:25:17;;;;;;;4.10;2.00;;;;;;;5.23;100.00;99698.29;109478;1254;63943;-77
2023/12/27 09:27:45;;;;;;;5.90;2.60;;;;;;;5.28;100.00;99690.73;109437;1253;59774;-78
2023/12/27 09:30:12;;;;;;;7.30;2.70;;;;;;;5.32;100.00;99690.07;109338;1254;64070;-77
2023/12/27 09:32:40;;;;;;;6.40;2.80;;;;;;;5.37;100.00;99692.20;109405;1254;58169;-77
2023/12/27 09:35:07;;;;;;;7.00;2.60;;;;;;;5.41;100.00;99695.04;109465;1252;58244;-78
2023/12/27 09:37:35;;;;;;;5.50;2.50;;;;;;;5.44;100.00;99694.60;109156;1254;66210;-78
2023/12/27 09:40:03;;;;;;;6.40;2.60;;;;;;;5.48;100.00;99697.27;109496;1253;61018;-79
2023/12/27 09:42:32;;;;;;;4.50;2.10;;;;;;;5.51;100.00;99697.17;109458;1253;65110;-78
2023/12/27 09:45:02;;;;;;;4.40;2.50;;;;;;;5.54;100.00;99690.04;109411;1253;58929;-77
2023/12/27 09:47:30;;;;;;;;;;;;;;;5.58;100.00;99682.66;109498;1253;58230;-78
2023/12/27 09:49:58;;;;;;;7.00;4.20;;;;;;;5.61;100.00;99679.53;109485;1254;65239;-78
2023/12/27 09:52:28;;;;;;;6.70;3.60;;;;;;;5.65;100.00;99676.92;109427;1252;61034;-78
2023/12/27 09:54:54;;;;;;;4.80;3.20;;;;;;;5.71;100.00;99674.43;109439;1254;64098;-76
2023/12/27 09:57:22;;;;;;;6.00;3.70;;;;;;;5.76;100.00;99667.92;109458;1253;58223;-78
2023/12/27 09:59:51;;;;;;;4.60;2.60;;;;;;;5.79;100.00;99660.21;109414;1253;59073;-78
2023/12/27 10:02:19;;;;;;;6.40;2.20;;;;;;;5.82;100.00;99662.05;109199;1253;63826;-77
2023/12/27 10:04:56;;;;;;;6.00;2.50;;;;;;;5.86;100.00;99667.19;109498;1254;61262;-78
2023/12/27 10:07:25;;;;;;;3.80;2.40;;;;;;;5.92;100.00;99665.73;109380;1254;65069;-78
2023/12/27 10:09:53;;;;;;;4.60;1.80;;;;;;;5.98;100.00;99671.02;109021;1256;58547;-79
2023/12/27 10:12:20;;;;;;;4.50;2.00;;;;;;;6.03;100.00;99671.17;109054;1257;58481;-76
2023/12/27 10:14:48;;;;;;;4.70;2.10;;;;;;;6.09;100.00;99667.05;109066;1257;66235;-78
2023/12/27 10:17:15;;;;;;;5.00;2.10;;;;;;;6.16;100.00;99666.28;109152;1257;61502;-79
2023/12/27 10:19:44;;;;;;;3.50;1.90;;;;;;;6.23;100.00;99667.59;109165;1256;64155;-78
2023/12/27 10:22:12;;;;;;;4.10;2.40;;;;;;;6.28;100.00;99664.39;109061;1257;58334;-78
2023/12/27 10:24:39;;;;;;;3.80;1.90;;;;;;;6.33;100.00;99662.79;109024;1257;58142;-77
2023/12/27 10:27:08;;;;;;;4.40;2.40;;;;;;;6.37;100.00;99657.52;109025;1257;65354;-78
2023/12/27 10:29:35;;;;;;;7.00;2.90;;;;;;;6.38;100.00;99659.04;108921;1257;58985;-79
2023/12/27 10:32:03;;;;;;;5.60;2.90;;;;;;;6.39;100.00;99661.14;109036;1256;63706;-77
2023/12/27 10:34:30;;;;;;;7.20;2.30;;;;;;;6.43;100.00;99665.40;109163;1257;58308;-78
2023/12/27 10:36:58;;;;;;;3.70;2.40;;;;;;;6.43;100.00;99667.90;109193;1256;58507;-79
2023/12/27 10:39:25;;;;;;;2.40;1.70;;;;;;;6.43;100.00;99665.92;108950;1257;66182;-79
2023/12/27 10:41:53;;;;;;;2.10;1.30;;;;;;;6.48;100.00;99664.15;109441;1254;60041;-80
2023/12/27 10:44:22;;;;;;;3.50;2.00;;;;;;;6.51;100.00;99668.60;109351;1254;63902;-79
2023/12/27 10:46:53;;;;;;;5.10;2.00;;;;;;;6.54;100.00;99664.08;109487;1253;58396;-78
2023/12/27 10:49:24;;;;;;;4.00;1.40;;;;;;;6.59;100.00;99661.41;109456;1253;58157;-77
2023/12/27 10:51:53;;;;;;;4.60;1.90;;;;;;;6.59;100.00;99657.14;109289;1253;66271;-78
2023/12/27 10:54:21;;;;;;;3.40;2.00;;;;;;;6.63;100.00;99652.27;109479;1254;60106;-78
2023/12/27 10:56:52;;;;;;;3.10;1.50;;;;;;;6.67;100.00;99649.44;109479;1253;65122;-78
2023/12/27 10:59:18;;;;;;;4.80;1.80;;;;;;;6.70;100.00;99649.48;109461;1252;58564;-79
2023/12/27 11:01:46;;;;;;;2.00;1.30;;;;;;;6.72;100.00;99648.89;109467;1252;58093;-78
2023/12/27 11:04:16;;;;;;;3.90;1.70;;;;;;;6.75;100.00;99649.11;109469;1254;65337;-79
2023/12/27 11:06:45;;;;;;;;;;;;;;;6.80;100.00;99644.50;109458;1253;60259;-78
2023/12/27 11:09:13;;;;;;;4.40;1.90;;;;;;;6.82;100.00;99646.88;109444;1252;62815;-78
2023/12/27 11:11:40;;;;;;;2.90;1.60;;;;;;;6.83;100.00;99648.10;109441;1253;58452;-78
2023/12/27 11:14:10;;;;;;;4.70;1.60;;;;;;;6.83;100.00;99644.41;109382;1253;58218;-78
2023/12/27 11:16:39;;;;;;;;;;;;;;;6.83;100.00;99644.55;109467;1253;66418;-78
2023/12/27 11:19:07;;;;;;;3.20;1.50;;;;;;;6.85;100.00;99640.39;109405;1252;61162;-77
2023/12/27 11:25:05;;;;;;;3.10;1.50;;;;;;;6.93;100.00;99635.14;102502;1295;600990;-78
2023/12/27 11:44:22;;;;;;;2.90;1.30;;;;;;;6.87;100.00;99621.42;103008;1290;600129;-79
2023/12/27 11:46:49;;;;;;;3.90;1.80;;;;;;;6.86;100.00;99616.55;104915;1270;59294;-78